Time;durP1;ratioP1;P1;durP2;ratioP2;P2;SDS_P1;SDS_P2;PMS_P1;PMS_P2;Temp;Humidity;BMP_temperature;BMP_pressure;BME280_temperature;BME280_humidity;BME280_pressure;Samples;Min_cycle;Max_cycle;Signal;HPM_P1;HPM_P2
2022/07/09 04:02:27;;;;;;;23.55;12.73;;;15.80;99.90;;;;;;6296265;22;20019;-84
2022/07/09 04:04:56;;;;;;;31.40;14.13;;;15.80;99.90;;;;;;6282653;22;20011;-84
2022/07/09 04:07:22;;;;;;;32.05;14.73;;;15.90;99.90;;;;;;6282462;22;20011;-85
2022/07/09 04:09:48;;;;;;;29.52;14.60;;;15.90;99.90;;;;;;6282290;22;20019;-84
2022/07/09 04:12:13;;;;;;;31.10;13.80;;;15.90;99.90;;;;;;6256441;22;20026;-85
2022/07/09 04:14:39;;;;;;;21.95;12.20;;;15.90;99.90;;;;;;6282291;22;20016;-85
2022/07/09 04:17:06;;;;;;;22.45;12.13;;;15.90;99.90;;;;;;6231122;22;20559;-85
2022/07/09 04:19:31;;;;;;;23.70;12.38;;;15.90;99.90;;;;;;6286537;22;20022;-85
2022/07/09 04:21:57;;;;;;;23.17;12.15;;;15.90;99.90;;;;;;6275235;22;20019;-81
2022/07/09 04:24:23;;;;;;;26.75;12.75;;;15.90;99.90;;;;;;6276371;22;20022;-83
2022/07/09 04:26:48;;;;;;;26.48;12.38;;;15.90;99.90;;;;;;6255006;22;20007;-83
2022/07/09 04:29:14;;;;;;;28.95;12.63;;;15.90;99.90;;;;;;6262804;22;20016;-85
2022/07/09 04:31:40;;;;;;;22.95;11.82;;;15.90;99.90;;;;;;6261788;22;20015;-85
2022/07/09 04:34:05;;;;;;;24.33;11.30;;;15.90;99.90;;;;;;6255647;22;20494;-86
2022/07/09 04:36:31;;;;;;;20.40;10.85;;;16.00;99.90;;;;;;6282007;22;20038;-86
2022/07/09 04:38:57;;;;;;;22.13;10.05;;;16.00;99.90;;;;;;6253683;22;20134;-85
2022/07/09 04:41:22;;;;;;;20.27;10.32;;;16.00;99.90;;;;;;6253983;22;20063;-85
2022/07/09 04:43:48;;;;;;;20.55;9.90;;;16.00;99.90;;;;;;6254420;22;20061;-86
2022/07/09 04:46:16;;;;;;;19.08;10.75;;;16.00;99.90;;;;;;6281150;22;20421;-82
2022/07/09 04:48:41;;;;;;;24.10;10.93;;;16.00;99.90;;;;;;6253255;22;20060;-84
2022/07/09 04:51:07;;;;;;;26.13;10.55;;;16.00;99.90;;;;;;6254033;22;20094;-85
2022/07/09 04:53:33;;;;;;;21.73;10.95;;;16.00;99.90;;;;;;6254557;22;20060;-86
2022/07/09 04:55:58;;;;;;;23.00;10.10;;;16.10;99.90;;;;;;6228779;22;20008;-84
2022/07/09 04:58:24;;;;;;;27.80;10.70;;;16.10;99.90;;;;;;6228480;22;20016;-84
2022/07/09 05:00:49;;;;;;;19.67;10.25;;;16.10;99.90;;;;;;6253301;22;20143;-84
2022/07/09 05:03:15;;;;;;;23.25;10.40;;;16.10;99.90;;;;;;6228582;22;20442;-86
2022/07/09 05:05:41;;;;;;;24.95;11.23;;;16.10;99.90;;;;;;6254015;22;20047;-85
2022/07/09 05:08:06;;;;;;;21.67;10.45;;;16.10;99.90;;;;;;6253545;22;20011;-84
2022/07/09 05:10:32;;;;;;;20.70;10.50;;;16.10;99.90;;;;;;6253538;22;20483;-84
2022/07/09 05:12:58;;;;;;;20.90;11.07;;;16.10;99.90;;;;;;6253989;22;20511;-84
2022/07/09 05:15:23;;;;;;;27.55;10.90;;;16.10;99.90;;;;;;6253900;22;20018;-85
2022/07/09 05:17:49;;;;;;;22.40;11.43;;;16.10;99.90;;;;;;6254258;22;20066;-84
2022/07/09 05:20:14;;;;;;;18.10;10.48;;;16.10;99.90;;;;;;6253542;22;20019;-85
2022/07/09 05:22:40;;;;;;;18.63;10.27;;;16.10;99.90;;;;;;6228242;22;20088;-85
2022/07/09 05:25:06;;;;;;;21.98;10.95;;;16.10;99.90;;;;;;6254124;22;20019;-85
2022/07/09 05:27:32;;;;;;;17.05;9.75;;;16.10;99.90;;;;;;6253856;22;20091;-85
2022/07/09 05:29:58;;;;;;;18.73;10.02;;;16.10;99.90;;;;;;6252821;22;20016;-84
2022/07/09 05:32:24;;;;;;;17.63;9.38;;;16.10;99.90;;;;;;6253370;22;20028;-85
2022/07/09 05:34:49;;;;;;;15.18;8.95;;;16.20;99.90;;;;;;6253030;22;20015;-85
2022/07/09 05:37:15;;;;;;;18.08;8.90;;;16.20;99.90;;;;;;6280781;22;20016;-84
2022/07/09 05:39:41;;;;;;;15.88;9.50;;;16.30;99.90;;;;;;6253236;22;20052;-85
2022/07/09 05:42:06;;;;;;;15.43;8.63;;;16.30;99.90;;;;;;6253177;22;20008;-83
2022/07/09 05:44:32;;;;;;;16.23;8.75;;;16.40;99.90;;;;;;6253229;22;20011;-85
2022/07/09 05:46:58;;;;;;;15.68;9.18;;;16.40;99.90;;;;;;6252539;22;20011;-85
2022/07/09 05:49:25;;;;;;;16.42;9.00;;;16.50;99.90;;;;;;6253275;22;20084;-85
2022/07/09 05:51:51;;;;;;;18.73;8.73;;;16.50;99.90;;;;;;6252971;22;20019;-84
2022/07/09 05:54:17;;;;;;;17.23;9.13;;;16.50;99.90;;;;;;6280556;22;20014;-83
2022/07/09 05:56:42;;;;;;;13.32;7.80;;;16.60;99.90;;;;;;6253467;22;20520;-85
2022/07/09 05:59:08;;;;;;;19.13;9.10;;;16.60;99.90;;;;;;6280553;22;20463;-85
2022/07/09 06:01:39;;;;;;;12.95;7.55;;;16.60;99.90;;;;;;6253217;22;20011;-84
2022/07/09 06:04:07;;;;;;;17.00;7.47;;;16.70;99.90;;;;;;6253561;22;20019;-85
2022/07/09 06:06:33;;;;;;;16.17;8.70;;;16.80;99.90;;;;;;6253625;22;20058;-84
2022/07/09 06:08:58;;;;;;;11.90;7.22;;;16.80;99.90;;;;;;6253171;22;20341;-84
2022/07/09 06:11:24;;;;;;;13.70;6.95;;;16.80;99.90;;;;;;6227128;22;20038;-84
2022/07/09 06:13:49;;;;;;;14.38;6.43;;;16.90;99.90;;;;;;6253610;22;20016;-86
2022/07/09 06:16:15;;;;;;;10.35;5.72;;;16.90;99.90;;;;;;6252905;22;20060;-83
2022/07/09 06:18:41;;;;;;;10.10;5.72;;;17.00;99.90;;;;;;6280435;22;20061;-84
2022/07/09 06:21:06;;;;;;;11.68;5.38;;;17.00;99.90;;;;;;6253200;22;20448;-85
2022/07/09 06:23:32;;;;;;;13.65;5.43;;;17.00;99.90;;;;;;6253126;22;20448;-84
2022/07/09 06:25:57;;;;;;;10.35;5.10;;;17.10;99.90;;;;;;6252807;22;20014;-83
2022/07/09 06:28:23;;;;;;;9.45;4.65;;;17.10;99.90;;;;;;6252794;22;20042;-85
2022/07/09 06:30:49;;;;;;;10.65;5.10;;;17.20;99.90;;;;;;6252637;22;20016;-84
2022/07/09 06:33:14;;;;;;;9.25;4.43;;;17.20;99.90;;;;;;6252496;22;20011;-84
2022/07/09 06:35:40;;;;;;;10.50;5.18;;;17.20;99.90;;;;;;6252590;22;20019;-84
2022/07/09 06:38:06;;;;;;;10.00;5.13;;;17.20;99.90;;;;;;6252199;22;20090;-85
2022/07/09 06:40:32;;;;;;;15.15;5.32;;;17.30;99.90;;;;;;6252627;22;20016;-83
2022/07/09 06:42:58;;;;;;;10.90;4.55;;;17.40;99.90;;;;;;6252259;22;20050;-85
2022/07/09 06:45:23;;;;;;;9.75;5.18;;;17.40;99.90;;;;;;6253397;22;20011;-84
2022/07/09 06:47:49;;;;;;;11.88;4.93;;;17.40;99.90;;;;;;6252958;22;20015;-85
2022/07/09 06:50:15;;;;;;;9.82;4.93;;;17.40;99.90;;;;;;6253599;22;20020;-85
2022/07/09 06:52:41;;;;;;;8.93;4.10;;;17.40;99.90;;;;;;6252473;22;20018;-84
2022/07/09 06:55:07;;;;;;;8.32;4.25;;;17.50;99.90;;;;;;6250802;22;20414;-83
2022/07/09 06:57:32;;;;;;;10.57;4.40;;;17.60;99.90;;;;;;6252562;22;20327;-85
2022/07/09 06:59:58;;;;;;;6.03;4.05;;;17.60;99.90;;;;;;6252002;22;20023;-84
2022/07/09 07:02:24;;;;;;;7.10;4.22;;;17.70;99.90;;;;;;6252656;22;20018;-85
2022/07/09 07:04:49;;;;;;;7.82;4.10;;;17.70;99.90;;;;;;6252704;22;20022;-84
2022/07/09 07:07:15;;;;;;;9.55;4.38;;;17.80;99.90;;;;;;6252346;22;20015;-84
2022/07/09 07:09:40;;;;;;;9.07;4.00;;;17.80;99.90;;;;;;6252276;22;20065;-84
2022/07/09 07:12:07;;;;;;;9.23;3.50;;;17.90;99.90;;;;;;6251659;22;20065;-85
2022/07/09 07:14:32;;;;;;;9.63;4.22;;;17.90;99.90;;;;;;6226681;22;20015;-85
2022/07/09 07:16:58;;;;;;;7.72;4.30;;;17.90;99.90;;;;;;6278793;22;20016;-84
2022/07/09 07:19:24;;;;;;;8.15;4.03;;;17.90;99.90;;;;;;6251806;22;20022;-83
2022/07/09 07:21:49;;;;;;;8.68;3.50;;;17.90;99.90;;;;;;6251525;22;20043;-83
2022/07/09 07:24:15;;;;;;;9.07;3.47;;;18.00;99.90;;;;;;6251714;22;20023;-81
2022/07/09 07:26:41;;;;;;;10.05;3.70;;;18.00;99.90;;;;;;6251971;22;20099;-85
2022/07/09 07:29:06;;;;;;;7.85;3.50;;;18.10;99.90;;;;;;6252212;22;20012;-83
2022/07/09 07:31:32;;;;;;;7.80;3.47;;;18.10;99.90;;;;;;6252246;22;20085;-84
2022/07/09 07:33:59;;;;;;;6.45;3.60;;;18.10;99.90;;;;;;6278928;22;20046;-85
2022/07/09 07:36:26;;;;;;;9.40;3.20;;;18.20;99.90;;;;;;6279455;22;20011;-84
2022/07/09 07:38:52;;;;;;;6.25;3.15;;;18.20;99.90;;;;;;6251435;22;20012;-84
2022/07/09 07:41:18;;;;;;;8.38;3.20;;;18.20;99.90;;;;;;6250812;22;20012;-84
2022/07/09 07:43:44;;;;;;;5.60;3.22;;;18.10;99.90;;;;;;6277124;22;20337;-84
2022/07/09 07:46:10;;;;;;;7.72;3.30;;;18.20;99.90;;;;;;6279423;22;20014;-84
2022/07/09 07:48:37;;;;;;;6.05;3.10;;;18.10;99.90;;;;;;6251057;22;20024;-84
2022/07/09 07:51:03;;;;;;;5.45;3.17;;;18.10;99.90;;;;;;6278111;22;20019;-84
2022/07/09 07:53:32;;;;;;;7.70;3.10;;;18.10;99.90;;;;;;6251662;22;20429;-83
2022/07/09 07:56:00;;;;;;;8.13;3.03;;;18.10;99.90;;;;;;6279141;22;20012;-83
2022/07/09 07:58:26;;;;;;;9.63;3.72;;;18.10;99.90;;;;;;6252158;22;20023;-84
2022/07/09 08:00:51;;;;;;;7.78;2.88;;;18.10;99.90;;;;;;6279126;22;20007;-84
2022/07/09 08:03:17;;;;;;;8.45;2.53;;;18.20;99.90;;;;;;6252263;22;20008;-84
2022/07/09 08:05:43;;;;;;;5.60;2.35;;;18.30;99.90;;;;;;6251783;22;20016;-83
2022/07/09 08:08:08;;;;;;;5.43;2.10;;;18.40;99.90;;;;;;6251878;22;20014;-83
2022/07/09 08:10:34;;;;;;;5.93;2.83;;;18.40;99.90;;;;;;6226897;22;20492;-82
2022/07/09 08:12:59;;;;;;;6.18;2.90;;;18.40;99.90;;;;;;6280458;22;20085;-84
2022/07/09 08:15:25;;;;;;;4.22;2.17;;;18.50;99.90;;;;;;6227727;22;20015;-86
2022/07/09 08:17:51;;;;;;;5.10;1.90;;;18.50;99.90;;;;;;6228130;22;20011;-86
2022/07/09 08:20:16;;;;;;;7.03;2.03;;;18.50;99.90;;;;;;6279213;22;20011;-85
2022/07/09 08:22:42;;;;;;;4.55;2.45;;;18.60;99.90;;;;;;6252012;22;20012;-83
2022/07/09 08:25:08;;;;;;;4.05;2.25;;;18.60;99.90;;;;;;6279423;22;20014;-84
2022/07/09 08:27:34;;;;;;;5.90;2.10;;;18.80;99.90;;;;;;6250807;22;20484;-83
2022/07/09 08:29:59;;;;;;;5.93;2.17;;;18.80;99.90;;;;;;6252088;22;20058;-84
2022/07/09 08:32:28;;;;;;;4.20;2.15;;;18.90;99.90;;;;;;6252029;22;20450;-86
2022/07/09 08:34:54;;;;;;;7.30;2.00;;;18.90;99.90;;;;;;6278966;22;20061;-84
2022/07/09 08:37:20;;;;;;;5.78;2.45;;;18.90;99.90;;;;;;6250929;22;20031;-82
2022/07/09 08:39:45;;;;;;;5.05;2.05;;;18.90;99.90;;;;;;6251594;22;20047;-83
2022/07/09 08:42:11;;;;;;;5.15;1.83;;;19.00;99.90;;;;;;6251281;22;20480;-80
2022/07/09 08:44:42;;;;;;;5.70;1.90;;;19.00;99.90;;;;;;6250987;22;20441;-84
2022/07/09 08:47:11;;;;;;;4.00;1.80;;;19.00;99.90;;;;;;6250108;22;20011;-85
2022/07/09 08:49:37;;;;;;;5.30;1.90;;;19.20;99.90;;;;;;6278609;22;20019;-82
2022/07/09 08:52:05;;;;;;;6.00;2.05;;;19.40;99.90;;;;;;6278187;22;20441;-85
2022/07/09 08:57:56;;;;;;;5.82;1.95;;;19.50;99.90;;;;;;6251414;22;20102;-82
2022/07/09 09:13:19;;;;;;;7.32;1.50;;;19.80;99.90;;;;;;6309395;22;20401;-83
2022/07/09 09:15:44;;;;;;;7.68;1.92;;;19.80;99.90;;;;;;6256249;22;20098;-82
2022/07/09 09:18:11;;;;;;;6.10;1.30;;;19.80;99.90;;;;;;6310937;22;20038;-83
2022/07/09 09:20:38;;;;;;;4.15;1.50;;;19.80;99.90;;;;;;6253251;22;20438;-84
2022/07/09 09:23:09;;;;;;;5.20;1.50;;;19.90;99.90;;;;;;6253437;22;20380;-84
2022/07/09 09:25:35;;;;;;;5.50;1.30;;;19.90;99.90;;;;;;6280853;22;20079;-85
2022/07/09 09:28:01;;;;;;;5.38;1.70;;;20.00;99.90;;;;;;6252626;22;20011;-83
2022/07/09 09:30:29;;;;;;;6.32;1.60;;;20.00;99.90;;;;;;6252366;22;20019;-82
2022/07/09 09:33:02;;;;;;;6.35;1.77;;;20.10;99.90;;;;;;6280611;22;20016;-80
2022/07/09 09:35:29;;;;;;;5.07;1.10;;;20.10;99.90;;;;;;6253078;22;20026;-80
2022/07/09 09:37:56;;;;;;;8.40;1.35;;;20.10;99.90;;;;;;6280199;22;20421;-82
2022/07/09 09:40:23;;;;;;;5.20;1.90;;;20.20;99.90;;;;;;6252539;22;20337;-81
2022/07/09 09:42:49;;;;;;;3.42;1.20;;;20.20;99.90;;;;;;6252932;22;20016;-81
2022/07/09 09:45:16;;;;;;;8.35;1.40;;;20.20;99.90;;;;;;6227340;22;20023;-83
2022/07/09 09:47:51;;;;;;;8.63;1.65;;;20.20;99.90;;;;;;6252289;22;20018;-82
2022/07/09 09:50:25;;;;;;;8.52;1.83;;;20.20;99.90;;;;;;6252399;22;20011;-82
2022/07/09 09:52:52;;;;;;;11.32;1.40;;;20.20;99.90;;;;;;6253173;22;20041;-82
2022/07/09 09:55:20;;;;;;;8.85;1.80;;;20.30;99.90;;;;;;6252933;22;20023;-83
2022/07/09 09:57:46;;;;;;;7.43;1.65;;;20.30;99.90;;;;;;6280392;22;20046;-82
2022/07/09 10:00:13;;;;;;;5.90;1.30;;;20.30;99.90;;;;;;6252262;22;20470;-82
2022/07/09 10:02:43;;;;;;;6.05;1.15;;;20.20;99.90;;;;;;6253348;22;20077;-81
2022/07/09 10:05:13;;;;;;;4.20;1.13;;;20.10;99.90;;;;;;6254621;22;20007;-81
2022/07/09 10:07:40;;;;;;;5.30;1.55;;;20.10;99.90;;;;;;6254655;22;20314;-82
2022/07/09 10:10:06;;;;;;;4.53;1.17;;;20.30;99.90;;;;;;6285636;22;20016;-79
2022/07/09 10:12:36;;;;;;;7.88;1.48;;;20.50;99.90;;;;;;6266647;22;20043;-78
2022/07/09 10:15:08;;;;;;;3.67;1.00;;;20.50;99.90;;;;;;6263970;22;20060;-81
2022/07/09 10:17:41;;;;;;;6.65;1.27;;;20.50;99.90;;;;;;6253425;22;20077;-81
2022/07/09 10:20:07;;;;;;;5.75;1.27;;;20.30;99.90;;;;;;6252945;22;20008;-81
2022/07/09 10:22:38;;;;;;;8.35;1.60;;;20.40;99.90;;;;;;6226982;22;20015;-82
2022/07/09 10:25:04;;;;;;;6.57;1.25;;;20.60;99.90;;;;;;6252209;22;20024;-80
2022/07/09 10:27:41;;;;;;;6.22;1.40;;;20.60;99.90;;;;;;6279480;22;20079;-80
2022/07/09 10:30:08;;;;;;;4.13;1.15;;;20.50;99.90;;;;;;6279381;22;20015;-81
2022/07/09 10:32:35;;;;;;;4.13;1.30;;;20.30;99.90;;;;;;6252227;22;20012;-80
2022/07/09 10:35:03;;;;;;;6.75;1.30;;;20.30;99.90;;;;;;6226822;22;20012;-80
2022/07/09 10:37:36;;;;;;;5.03;1.15;;;20.30;99.90;;;;;;6251814;22;20025;-81
2022/07/09 10:40:22;;;;;;;3.72;1.30;;;20.30;99.90;;;;;;6278387;22;20015;-80
2022/07/09 10:43:05;;;;;;;5.15;1.77;;;20.50;99.90;;;;;;6252145;22;20319;-80
2022/07/09 10:45:41;;;;;;;6.93;1.63;;;20.70;99.90;;;;;;6252162;22;20035;-81
2022/07/09 10:48:09;;;;;;;9.10;1.58;;;20.90;99.90;;;;;;6226917;22;20012;-81
2022/07/09 10:50:40;;;;;;;4.10;1.17;;;21.10;99.90;;;;;;6251845;22;20442;-81
2022/07/09 10:53:06;;;;;;;7.30;1.90;;;21.20;99.90;;;;;;6251945;22;20114;-83
2022/07/09 10:55:32;;;;;;;5.03;1.42;;;21.30;99.90;;;;;;6251280;22;20012;-83
2022/07/09 10:57:58;;;;;;;6.72;1.42;;;21.40;99.90;;;;;;6251611;22;20020;-83
2022/07/09 11:00:26;;;;;;;6.63;1.45;;;21.30;99.90;;;;;;6251425;22;20079;-82
2022/07/09 11:03:00;;;;;;;5.22;1.58;;;21.20;99.90;;;;;;6251819;22;20054;-84
2022/07/09 11:05:30;;;;;;;4.80;1.67;;;21.40;99.90;;;;;;6226278;22;20075;-82
2022/07/09 11:08:03;;;;;;;5.57;1.73;;;21.60;99.90;;;;;;6252228;22;20014;-83
2022/07/09 11:10:30;;;;;;;6.13;2.08;;;21.60;99.90;;;;;;6251579;22;20132;-84
2022/07/09 11:13:01;;;;;;;6.53;1.63;;;21.60;99.90;;;;;;6251458;22;20058;-82
2022/07/09 11:15:33;;;;;;;6.70;2.05;;;21.70;99.90;;;;;;6225811;22;20016;-82
2022/07/09 11:18:08;;;;;;;8.15;1.60;;;21.80;99.90;;;;;;6251301;22;20018;-82
2022/07/09 11:20:43;;;;;;;8.73;2.03;;;21.90;99.90;;;;;;6251228;22;20051;-83
2022/07/09 11:23:14;;;;;;;10.63;1.88;;;22.00;99.90;;;;;;6251098;22;20019;-83
2022/07/09 11:25:40;;;;;;;6.30;1.70;;;22.00;99.90;;;;;;6251168;22;20011;-82
2022/07/09 11:28:06;;;;;;;6.35;1.70;;;21.80;99.90;;;;;;6251288;22;20092;-81
2022/07/09 11:30:32;;;;;;;8.45;1.85;;;21.50;99.90;;;;;;6251104;22;20348;-82
2022/07/09 11:32:58;;;;;;;5.53;1.73;;;21.20;99.90;;;;;;6251049;22;20071;-83
2022/07/09 11:35:32;;;;;;;14.07;2.45;;;20.90;99.90;;;;;;6250524;22;20453;-82
2022/07/09 11:37:59;;;;;;;9.32;2.22;;;20.80;99.90;;;;;;6250956;22;20436;-82
2022/07/09 11:40:25;;;;;;;9.98;1.80;;;20.70;99.90;;;;;;6250772;22;20437;-82
2022/07/09 11:42:51;;;;;;;7.90;2.40;;;20.60;99.90;;;;;;6251402;22;20023;-82
2022/07/09 11:45:24;;;;;;;6.93;1.85;;;20.70;99.90;;;;;;6251302;22;20014;-81
2022/07/09 11:48:01;;;;;;;8.93;1.75;;;20.90;99.90;;;;;;6252025;22;20026;-82
2022/07/09 11:50:27;;;;;;;10.52;2.00;;;21.20;99.90;;;;;;6250750;22;20435;-83
2022/07/09 11:52:53;;;;;;;8.68;2.30;;;21.40;99.90;;;;;;6250884;22;20361;-82
2022/07/09 11:55:21;;;;;;;8.38;1.88;;;21.50;99.90;;;;;;6250879;22;20016;-81
2022/07/09 11:57:55;;;;;;;8.05;2.15;;;21.50;99.90;;;;;;6226130;22;20136;-82
2022/07/09 12:00:25;;;;;;;5.57;1.60;;;21.50;99.90;;;;;;6278221;22;20007;-83
2022/07/09 12:02:51;;;;;;;9.75;1.85;;;21.70;99.90;;;;;;6250617;22;20022;-82
2022/07/09 12:05:25;;;;;;;7.57;1.63;;;21.80;99.90;;;;;;6277967;22;20003;-83
2022/07/09 12:07:52;;;;;;;7.13;1.70;;;21.90;99.90;;;;;;6251159;22;20011;-83
2022/07/09 12:10:28;;;;;;;6.72;1.33;;;21.80;99.90;;;;;;6224728;22;20099;-82
2022/07/09 12:12:58;;;;;;;4.93;1.40;;;21.70;99.90;;;;;;6249250;22;20341;-89
2022/07/09 12:15:24;;;;;;;8.73;1.50;;;21.60;99.90;;;;;;6249957;22;20391;-84
2022/07/09 12:17:54;;;;;;;4.28;1.08;;;21.60;99.90;;;;;;6250791;22;20016;-85
2022/07/09 12:20:21;;;;;;;6.78;1.40;;;21.70;99.90;;;;;;6277737;22;20467;-87
2022/07/09 12:22:49;;;;;;;5.70;1.05;;;21.80;99.90;;;;;;6250827;22;20077;-86
2022/07/09 12:25:15;;;;;;;4.38;0.90;;;22.00;99.90;;;;;;6278163;22;20015;-83
2022/07/09 12:27:41;;;;;;;4.38;0.90;;;22.20;99.90;;;;;;6250953;22;20015;-83
2022/07/09 12:30:07;;;;;;;5.22;1.05;;;22.20;99.90;;;;;;6278082;22;20038;-84
2022/07/09 12:32:34;;;;;;;9.35;1.30;;;22.30;99.90;;;;;;6225584;22;20015;-87
2022/07/09 12:35:00;;;;;;;5.53;1.23;;;22.20;99.90;;;;;;6278564;22;20023;-83
2022/07/09 12:37:26;;;;;;;4.22;1.15;;;22.30;99.90;;;;;;6251531;22;20012;-85
2022/07/09 12:39:53;;;;;;;3.88;0.90;;;22.40;99.90;;;;;;6278419;22;20330;-86
2022/07/09 12:42:19;;;;;;;6.38;1.30;;;22.40;99.90;;;;;;6250211;22;20020;-85
2022/07/09 12:44:45;;;;;;;6.85;1.80;;;22.40;99.90;;;;;;6251042;22;20018;-88
2022/07/09 12:47:11;;;;;;;5.90;1.10;;;22.40;99.90;;;;;;6225671;22;20039;-85
2022/07/09 12:49:37;;;;;;;3.97;0.80;;;22.40;99.90;;;;;;6250956;22;20016;-85
2022/07/09 12:52:03;;;;;;;8.90;1.67;;;22.40;99.90;;;;;;6252377;22;20445;-85
2022/07/09 12:54:28;;;;;;;3.25;1.00;;;22.40;99.90;;;;;;6281689;22;20012;-86
2022/07/09 12:56:55;;;;;;;5.65;1.10;;;22.40;99.90;;;;;;6228807;22;20019;-87
2022/07/09 12:59:21;;;;;;;5.70;1.40;;;22.20;99.90;;;;;;6253439;22;20095;-88
2022/07/09 13:01:47;;;;;;;5.90;1.05;;;22.00;99.90;;;;;;6253271;22;20019;-85
2022/07/09 13:04:35;;;;;;;4.70;0.90;;;22.00;99.90;;;;;;6229949;22;20043;-86
2022/07/09 13:07:02;;;;;;;5.30;1.05;;;21.90;99.90;;;;;;6229074;22;20016;-86
2022/07/09 13:09:28;;;;;;;5.55;1.20;;;22.10;99.90;;;;;;6280824;22;20500;-86
2022/07/09 13:11:53;;;;;;;5.05;1.40;;;22.20;99.90;;;;;;6251955;22;20012;-84
2022/07/09 13:14:19;;;;;;;4.70;1.13;;;22.30;99.90;;;;;;6227343;22;20326;-83
2022/07/09 13:16:45;;;;;;;4.63;1.08;;;22.10;99.90;;;;;;6280147;22;20027;-83
2022/07/09 13:19:10;;;;;;;4.78;0.90;;;22.20;99.90;;;;;;6252138;22;20011;-81
2022/07/09 13:21:36;;;;;;;3.80;0.98;;;22.20;99.90;;;;;;6253108;22;20170;-86
2022/07/09 13:24:02;;;;;;;4.80;1.10;;;22.20;99.90;;;;;;6254002;22;20058;-84
2022/07/09 13:26:28;;;;;;;2.78;0.85;;;22.30;99.90;;;;;;6279420;22;20492;-83
2022/07/09 13:28:54;;;;;;;7.28;1.20;;;22.30;99.90;;;;;;6279898;22;20012;-83
2022/07/09 13:31:21;;;;;;;5.18;1.00;;;22.20;99.90;;;;;;6228055;22;20090;-84
2022/07/09 13:33:47;;;;;;;5.60;1.30;;;22.30;99.90;;;;;;6252268;22;20019;-83
2022/07/09 13:36:14;;;;;;;3.92;1.00;;;22.40;99.90;;;;;;6252436;22;20019;-85
2022/07/09 13:38:40;;;;;;;6.50;1.20;;;22.10;99.90;;;;;;6252287;22;20019;-84
2022/07/09 13:41:05;;;;;;;5.82;1.27;;;21.90;99.90;;;;;;6252150;22;20421;-83
2022/07/09 13:43:31;;;;;;;8.50;1.52;;;21.80;99.90;;;;;;6252497;22;20083;-84
2022/07/09 13:45:59;;;;;;;7.43;1.30;;;21.80;99.90;;;;;;6252288;22;20123;-83
2022/07/09 13:48:25;;;;;;;13.38;1.20;;;21.80;99.90;;;;;;6252194;22;20015;-83
2022/07/09 13:50:51;;;;;;;6.22;1.10;;;21.80;99.90;;;;;;6251797;22;20015;-83
2022/07/09 13:53:17;;;;;;;4.60;0.90;;;21.80;99.90;;;;;;6252046;22;20027;-81
2022/07/09 13:55:43;;;;;;;7.22;1.30;;;21.80;99.90;;;;;;6251574;22;20039;-83
2022/07/09 13:58:09;;;;;;;7.25;1.65;;;21.60;99.90;;;;;;6251892;22;20035;-84
2022/07/09 14:00:37;;;;;;;6.35;1.35;;;21.70;99.90;;;;;;6252202;22;20019;-85
2022/07/09 14:03:03;;;;;;;7.30;1.25;;;21.90;99.90;;;;;;6252075;22;20023;-84
2022/07/09 14:05:28;;;;;;;6.55;1.10;;;22.00;99.90;;;;;;6252182;22;20015;-82
2022/07/09 14:07:55;;;;;;;5.43;1.10;;;22.00;99.90;;;;;;6252346;22;20016;-85
2022/07/09 14:10:21;;;;;;;4.15;1.00;;;21.80;99.90;;;;;;6279501;22;20015;-84
2022/07/09 14:12:47;;;;;;;5.50;1.30;;;21.70;99.90;;;;;;6279029;22;20039;-84
2022/07/09 14:15:13;;;;;;;6.15;1.70;;;21.50;99.90;;;;;;6279172;22;20016;-83
2022/07/09 14:17:39;;;;;;;5.63;1.70;;;21.50;99.90;;;;;;6279156;22;20460;-82
2022/07/09 14:20:06;;;;;;;6.90;1.23;;;21.50;99.90;;;;;;6251401;22;20020;-84
2022/07/09 14:22:32;;;;;;;6.97;1.15;;;21.50;99.90;;;;;;6251836;22;20152;-83
2022/07/09 14:24:58;;;;;;;7.00;1.40;;;21.50;99.90;;;;;;6279561;22;20337;-87
2022/07/09 14:27:23;;;;;;;8.40;1.50;;;21.30;99.90;;;;;;6252994;22;20091;-82
2022/07/09 14:29:49;;;;;;;5.47;1.05;;;21.10;99.90;;;;;;6252047;22;20015;-82
2022/07/09 14:32:15;;;;;;;6.88;1.15;;;21.00;99.90;;;;;;6226575;22;20020;-82
2022/07/09 14:34:40;;;;;;;7.25;1.20;;;20.80;99.90;;;;;;6251575;22;20012;-82
2022/07/09 14:37:06;;;;;;;10.25;2.10;;;20.60;99.90;;;;;;6279223;22;20012;-83
2022/07/09 14:39:32;;;;;;;8.30;1.58;;;20.40;99.90;;;;;;6226877;22;20446;-82
2022/07/09 14:41:58;;;;;;;6.38;1.30;;;20.40;99.90;;;;;;6225455;22;20011;-81
2022/07/09 14:44:24;;;;;;;6.05;2.00;;;20.30;99.90;;;;;;6227140;22;20045;-82
2022/07/09 14:46:52;;;;;;;5.82;1.50;;;20.20;99.90;;;;;;6251906;22;20012;-82
2022/07/09 14:49:18;;;;;;;7.97;2.20;;;20.10;99.90;;;;;;6226818;22;20016;-81
2022/07/09 14:51:44;;;;;;;5.30;1.95;;;20.00;99.90;;;;;;6226270;22;20012;-80
2022/07/09 14:54:10;;;;;;;7.60;2.15;;;19.90;99.90;;;;;;6226168;22;20021;-82
2022/07/09 14:56:36;;;;;;;8.63;1.75;;;19.70;99.90;;;;;;6226649;22;20039;-82
2022/07/09 14:59:02;;;;;;;8.48;1.42;;;19.60;99.90;;;;;;6226059;22;20346;-80
2022/07/09 15:01:28;;;;;;;7.22;1.77;;;19.60;99.90;;;;;;6226567;22;20011;-81
2022/07/09 15:03:54;;;;;;;9.95;2.67;;;19.60;99.90;;;;;;6225460;22;20015;-80
2022/07/09 15:06:20;;;;;;;6.28;2.03;;;19.60;99.90;;;;;;6226165;22;20007;-82
2022/07/09 15:08:46;;;;;;;8.52;2.65;;;19.60;99.90;;;;;;6226334;22;20023;-82
2022/07/09 15:11:15;;;;;;;6.07;1.67;;;19.60;99.90;;;;;;6251789;22;20022;-81
2022/07/09 15:13:40;;;;;;;7.50;2.28;;;19.60;99.90;;;;;;6226005;22;20011;-82
2022/07/09 15:16:06;;;;;;;12.98;4.13;;;19.50;99.90;;;;;;6226343;22;20016;-82
2022/07/09 15:18:32;;;;;;;8.63;4.07;;;19.60;99.90;;;;;;6225883;22;20338;-82
2022/07/09 15:20:58;;;;;;;11.38;4.57;;;19.70;99.90;;;;;;6226148;22;20012;-81
2022/07/09 15:23:24;;;;;;;8.93;3.38;;;19.60;99.90;;;;;;6226846;22;20382;-81
2022/07/09 15:25:49;;;;;;;8.02;2.40;;;19.60;99.90;;;;;;6251657;22;20353;-83
2022/07/09 15:28:15;;;;;;;7.20;2.17;;;19.60;99.90;;;;;;6251537;22;20011;-82
2022/07/09 15:30:43;;;;;;;5.13;1.35;;;19.80;99.90;;;;;;6278423;22;20015;-82
2022/07/09 15:33:11;;;;;;;3.83;1.15;;;19.80;99.90;;;;;;6226397;22;20047;-82
2022/07/09 15:35:40;;;;;;;5.03;1.10;;;19.80;99.90;;;;;;6252647;22;20311;-82
2022/07/09 15:38:06;;;;;;;7.18;1.25;;;19.80;99.90;;;;;;6251382;22;20022;-81
2022/07/09 15:40:31;;;;;;;7.13;1.30;;;19.90;99.90;;;;;;6226314;22;20023;-79
2022/07/09 15:42:57;;;;;;;5.28;1.35;;;19.90;99.90;;;;;;6226424;22;20012;-79
2022/07/09 15:45:23;;;;;;;3.92;1.08;;;19.80;99.90;;;;;;6278713;22;20011;-81
2022/07/09 15:47:49;;;;;;;2.97;0.90;;;19.70;99.90;;;;;;6251173;22;20007;-81
2022/07/09 15:50:15;;;;;;;5.57;2.00;;;19.80;99.90;;;;;;6278730;22;20016;-84
2022/07/09 15:52:41;;;;;;;3.72;1.40;;;19.90;99.90;;;;;;6226196;22;20020;-81
2022/07/09 15:55:09;;;;;;;5.65;0.98;;;19.80;99.90;;;;;;6226356;22;20379;-82
2022/07/09 15:57:35;;;;;;;5.93;1.48;;;19.90;99.90;;;;;;6251637;22;20384;-82
2022/07/09 16:00:04;;;;;;;6.18;1.15;;;20.10;99.90;;;;;;6226472;22;20019;-84
2022/07/09 16:02:29;;;;;;;7.45;0.98;;;20.10;99.90;;;;;;6226571;22;20334;-84
2022/07/09 16:04:55;;;;;;;5.60;1.00;;;19.90;99.90;;;;;;6227575;22;20084;-88
2022/07/09 16:07:21;;;;;;;5.63;1.00;;;19.70;99.90;;;;;;6279428;22;20018;-87
2022/07/09 16:09:46;;;;;;;5.22;1.30;;;19.80;99.90;;;;;;6251751;22;20094;-85
2022/07/09 16:14:56;;;;;;;5.97;1.00;;;19.60;99.90;;;;;;6252542;22;20019;-85
2022/07/09 16:17:22;;;;;;;5.97;1.15;;;19.40;99.90;;;;;;6226821;22;20337;-84
2022/07/09 16:19:49;;;;;;;7.45;1.25;;;19.30;99.90;;;;;;6226343;22;20141;-84
2022/07/09 16:22:16;;;;;;;7.75;1.42;;;19.10;99.90;;;;;;6252385;22;20063;-86
2022/07/09 16:24:42;;;;;;;6.80;1.45;;;19.10;99.90;;;;;;6252873;22;20008;-88
2022/07/09 16:27:09;;;;;;;4.93;1.10;;;19.00;99.90;;;;;;6252024;22;20008;-84
2022/07/09 16:29:35;;;;;;;8.57;1.30;;;19.20;99.90;;;;;;6251314;22;20087;-87
2022/07/09 16:32:00;;;;;;;4.63;1.25;;;19.30;99.90;;;;;;6251140;22;20015;-83
2022/07/09 16:34:26;;;;;;;11.55;1.83;;;19.60;99.90;;;;;;6225801;22;20019;-84
2022/07/09 16:36:52;;;;;;;4.63;1.23;;;19.50;99.90;;;;;;6251536;22;20022;-84
2022/07/09 16:39:17;;;;;;;6.78;1.35;;;19.40;99.90;;;;;;6251046;22;20020;-84
2022/07/09 16:41:43;;;;;;;9.13;1.08;;;19.20;99.90;;;;;;6251176;22;20084;-85
2022/07/09 16:44:08;;;;;;;4.95;0.93;;;19.00;99.90;;;;;;6252082;22;20010;-88
2022/07/09 16:46:34;;;;;;;5.95;1.05;;;18.90;99.90;;;;;;6251048;22;20015;-83
2022/07/09 16:49:00;;;;;;;5.43;0.95;;;18.80;99.90;;;;;;6251781;22;20027;-87
2022/07/09 16:51:25;;;;;;;4.40;1.02;;;18.80;99.90;;;;;;6225674;22;20342;-84
2022/07/09 16:53:53;;;;;;;4.07;1.02;;;18.80;99.90;;;;;;6278720;22;20015;-85
2022/07/09 16:56:19;;;;;;;5.78;1.00;;;18.90;99.90;;;;;;6251300;22;20410;-86
2022/07/09 16:58:45;;;;;;;5.85;0.80;;;18.90;99.90;;;;;;6251074;22;20066;-86
2022/07/09 17:01:11;;;;;;;4.00;0.70;;;18.90;99.90;;;;;;6278903;22;20007;-82